Time;durP1;ratioP1;P1;durP2;ratioP2;P2;SDS_P1;SDS_P2;PMS_P1;PMS_P2;Temp;Humidity;BMP_temperature;BMP_pressure;BME280_temperature;BME280_humidity;BME280_pressure;Samples;Min_cycle;Max_cycle;Signal;HPM_P1;HPM_P2
2021/04/05 00:00:37;;;;;;;34.63;14.45;;;8.30;82.70;;;;;;4993553;28;20029;-60
2021/04/05 00:03:03;;;;;;;27.95;14.93;;;8.40;83.00;;;;;;4992910;28;20026;-61
2021/04/05 00:05:31;;;;;;;27.50;14.40;;;8.30;83.30;;;;;;5010500;28;20364;-62
2021/04/05 00:07:58;;;;;;;28.88;13.40;;;8.20;83.60;;;;;;5010251;28;20460;-61
2021/04/05 00:10:36;;;;;;;37.30;16.38;;;8.20;84.10;;;;;;5011455;28;20113;-61
2021/04/05 00:13:08;;;;;;;29.17;14.80;;;8.30;83.40;;;;;;4992719;28;20084;-62
2021/04/05 00:15:34;;;;;;;37.13;16.92;;;8.40;83.00;;;;;;4993164;28;20034;-62
2021/04/05 00:18:00;;;;;;;32.65;17.77;;;8.20;83.50;;;;;;5010000;28;20175;-61
2021/04/05 00:20:35;;;;;;;30.25;18.05;;;8.10;83.70;;;;;;5010554;28;20068;-62
2021/04/05 00:23:01;;;;;;;32.80;19.85;;;7.80;84.60;;;;;;4991826;28;20030;-62
2021/04/05 00:25:28;;;;;;;42.67;20.38;;;7.90;86.00;;;;;;4992910;28;20033;-62
2021/04/05 00:27:54;;;;;;;39.15;20.08;;;7.60;85.50;;;;;;4992829;28;20063;-61
2021/04/05 00:30:21;;;;;;;35.20;20.02;;;7.70;98.30;;;;;;5010446;28;20582;-60
2021/04/05 00:32:48;;;;;;;37.33;20.25;;;7.40;86.90;;;;;;4993219;28;20116;-62
2021/04/05 00:35:16;;;;;;;35.60;19.05;;;7.40;87.20;;;;;;5009858;28;20532;-60
2021/04/05 00:37:42;;;;;;;49.53;23.33;;;7.20;88.40;;;;;;4992930;28;20041;-60
2021/04/05 00:40:09;;;;;;;40.33;22.48;;;7.00;89.00;;;;;;4991907;28;20499;-61
2021/04/05 00:42:37;;;;;;;44.20;20.58;;;7.20;89.30;;;;;;4992750;28;20061;-61
2021/04/05 00:45:08;;;;;;;39.15;20.75;;;7.20;88.90;;;;;;5009535;28;20029;-61
2021/04/05 00:47:42;;;;;;;41.72;22.67;;;7.30;89.10;;;;;;5011035;28;20036;-61
2021/04/05 00:50:14;;;;;;;46.28;24.27;;;7.20;89.50;;;;;;4987714;28;20034;-63
2021/04/05 00:52:39;;;;;;;;;;;7.10;90.00;;;;;;4993389;28;20033;-61
2021/04/05 00:55:07;;;;;;;50.05;22.42;;;7.30;89.60;;;;;;5009639;28;20004;-64
2021/04/05 00:57:34;;;;;;;38.22;20.73;;;7.00;90.00;;;;;;5010690;28;20084;-61
2021/04/05 01:00:00;;;;;;;43.15;21.02;;;7.00;90.40;;;;;;4994963;28;20026;-63
2021/04/05 01:02:26;;;;;;;38.80;21.27;;;6.90;90.60;;;;;;4997161;28;20072;-61
2021/04/05 01:04:52;;;;;;;40.10;20.55;;;6.90;95.70;;;;;;4996724;28;20030;-61
2021/04/05 01:07:17;;;;;;;43.90;20.75;;;7.00;92.50;;;;;;5013464;28;20133;-61
2021/04/05 01:09:44;;;;;;;42.83;20.58;;;7.10;92.80;;;;;;5014660;28;20376;-60
2021/04/05 01:12:10;;;;;;;40.35;20.83;;;7.10;92.90;;;;;;4996162;28;20463;-61
2021/04/05 01:14:36;;;;;;;42.10;20.52;;;7.10;93.50;;;;;;5014130;28;20033;-61
2021/04/05 01:17:02;;;;;;;34.67;18.15;;;7.00;91.50;;;;;;4995675;28;20429;-60
2021/04/05 01:19:27;;;;;;;34.85;19.67;;;6.90;91.30;;;;;;5014447;28;20467;-60
2021/04/05 01:21:53;;;;;;;37.45;19.10;;;7.10;91.10;;;;;;5014016;28;20026;-60
2021/04/05 01:24:19;;;;;;;36.33;19.40;;;6.90;91.20;;;;;;4995902;28;20385;-61
2021/04/05 01:26:44;;;;;;;36.53;19.70;;;6.70;91.70;;;;;;4996516;28;20034;-59
2021/04/05 01:29:10;;;;;;;36.22;19.30;;;6.70;91.80;;;;;;4995802;28;20034;-60
2021/04/05 01:31:36;;;;;;;39.03;21.60;;;6.70;92.20;;;;;;4996405;28;20026;-62
2021/04/05 01:34:03;;;;;;;40.55;21.40;;;6.70;91.90;;;;;;5013434;28;20033;-60
2021/04/05 01:36:28;;;;;;;40.33;20.58;;;6.50;92.30;;;;;;4995410;28;20443;-60
2021/04/05 01:38:54;;;;;;;40.92;20.48;;;6.60;92.70;;;;;;5013654;28;20056;-60
2021/04/05 01:41:29;;;;;;;36.63;21.27;;;6.50;93.60;;;;;;5012750;28;20036;-61
2021/04/05 01:43:55;;;;;;;41.45;20.95;;;6.60;93.30;;;;;;4995941;28;20026;-61
2021/04/05 01:46:22;;;;;;;42.85;21.58;;;6.50;94.20;;;;;;5012530;28;20025;-61
2021/04/05 01:48:48;;;;;;;41.88;20.52;;;6.40;93.40;;;;;;4995990;28;20468;-65
2021/04/05 01:51:19;;;;;;;41.55;21.20;;;6.30;93.60;;;;;;5012019;28;20033;-63
2021/04/05 01:53:46;;;;;;;38.17;22.00;;;6.40;93.60;;;;;;4996171;28;20093;-61
2021/04/05 01:56:14;;;;;;;42.88;21.70;;;6.20;94.10;;;;;;4995211;28;20065;-60
2021/04/05 01:58:43;;;;;;;43.97;19.98;;;6.20;94.30;;;;;;4995783;28;20029;-61
2021/04/05 02:01:12;;;;;;;42.40;21.67;;;6.10;94.50;;;;;;5012562;28;20025;-60
2021/04/05 02:03:39;;;;;;;47.47;21.23;;;6.20;96.80;;;;;;5013788;28;20026;-61
2021/04/05 02:06:10;;;;;;;38.58;20.90;;;6.10;99.90;;;;;;4994518;28;20025;-61
2021/04/05 02:08:37;;;;;;;50.73;21.93;;;6.00;95.40;;;;;;4995728;28;20041;-61
2021/04/05 02:11:10;;;;;;;45.13;22.15;;;6.00;95.70;;;;;;5012660;28;20261;-60
2021/04/05 02:13:36;;;;;;;44.75;21.27;;;6.20;97.80;;;;;;4995906;28;20042;-60
2021/04/05 02:16:02;;;;;;;57.42;22.55;;;6.40;98.60;;;;;;5012823;28;20562;-61
2021/04/05 02:18:28;;;;;;;35.08;20.35;;;6.40;98.50;;;;;;4996012;28;20049;-61
2021/04/05 02:20:54;;;;;;;39.83;21.17;;;6.50;98.30;;;;;;5012922;28;20037;-61
2021/04/05 02:23:20;;;;;;;41.63;20.88;;;6.60;98.30;;;;;;4994518;28;20198;-61
2021/04/05 02:26:10;;;;;;;40.72;20.60;;;6.50;98.50;;;;;;4995781;28;20025;-60
2021/04/05 02:29:00;;;;;;;40.05;22.00;;;6.50;98.80;;;;;;4995642;28;20129;-61
2021/04/05 02:31:29;;;;;;;38.80;20.05;;;6.40;99.30;;;;;;5010234;28;20050;-61
2021/04/05 02:33:56;;;;;;;41.58;20.98;;;6.40;99.90;;;;;;5012854;28;20440;-61
2021/04/05 02:36:27;;;;;;;37.65;19.75;;;6.20;99.90;;;;;;4994334;28;20643;-61
2021/04/05 02:38:56;;;;;;;43.70;20.52;;;6.30;99.90;;;;;;5012753;28;20062;-61
2021/04/05 02:41:24;;;;;;;40.80;20.48;;;6.40;99.90;;;;;;5011785;28;20474;-61
2021/04/05 02:43:52;;;;;;;41.58;20.05;;;6.40;99.90;;;;;;5012271;28;20432;-61
2021/04/05 02:46:24;;;;;;;40.13;19.77;;;6.40;99.90;;;;;;4994193;28;20054;-61
2021/04/05 02:48:51;;;;;;;45.47;19.90;;;6.30;99.90;;;;;;4995154;28;20057;-61
2021/04/05 02:51:19;;;;;;;43.75;18.98;;;6.20;97.50;;;;;;4993877;28;20030;-61
2021/04/05 02:53:51;;;;;;;28.95;18.55;;;6.30;97.40;;;;;;4994909;28;20099;-61
2021/04/05 02:56:19;;;;;;;36.08;17.80;;;6.40;97.30;;;;;;4994342;28;20216;-61
2021/04/05 02:58:47;;;;;;;35.88;17.30;;;6.40;97.40;;;;;;4995182;28;20030;-61
2021/04/05 03:01:14;;;;;;;34.13;18.30;;;6.40;97.30;;;;;;5012029;28;20352;-61
2021/04/05 03:03:41;;;;;;;37.15;17.30;;;6.40;97.30;;;;;;4994976;28;20033;-61
2021/04/05 03:06:08;;;;;;;37.42;17.90;;;6.50;96.90;;;;;;4993415;28;20045;-60
2021/04/05 03:08:34;;;;;;;32.08;16.92;;;6.60;96.60;;;;;;4994222;28;20110;-61
2021/04/05 03:11:03;;;;;;;30.40;15.38;;;6.60;96.50;;;;;;4994124;28;20515;-61
2021/04/05 03:13:31;;;;;;;29.23;16.27;;;6.60;96.50;;;;;;4994148;28;20037;-62
2021/04/05 03:15:57;;;;;;;27.23;15.20;;;6.60;96.40;;;;;;5012089;28;20062;-61
2021/04/05 03:18:24;;;;;;;28.65;15.02;;;6.60;96.40;;;;;;4977660;28;20695;-62
2021/04/05 03:20:50;;;;;;;34.40;17.48;;;6.60;96.70;;;;;;5011591;28;20052;-62
2021/04/05 03:23:16;;;;;;;31.20;16.55;;;6.60;96.70;;;;;;5010753;28;20057;-61
2021/04/05 03:25:42;;;;;;;33.20;15.77;;;6.70;96.40;;;;;;5011708;28;20088;-61
2021/04/05 03:28:09;;;;;;;41.55;18.50;;;6.60;96.40;;;;;;5010939;28;20034;-61
2021/04/05 03:30:42;;;;;;;32.13;17.70;;;6.50;96.60;;;;;;4993578;28;20386;-61
2021/04/05 03:33:20;;;;;;;34.17;18.25;;;6.50;96.60;;;;;;5011404;28;20109;-61
2021/04/05 03:36:00;;;;;;;51.38;20.52;;;6.60;96.60;;;;;;5011886;28;20101;-61
2021/04/05 03:38:26;;;;;;;36.60;16.67;;;6.50;96.30;;;;;;4993240;28;20073;-62
2021/04/05 03:40:54;;;;;;;38.03;18.58;;;6.60;96.30;;;;;;4994221;28;20076;-61
2021/04/05 03:43:29;;;;;;;34.58;17.95;;;6.60;96.00;;;;;;5011044;28;20490;-61
2021/04/05 03:46:02;;;;;;;41.63;18.55;;;6.60;96.10;;;;;;5011828;28;20068;-61
2021/04/05 03:48:38;;;;;;;36.53;18.75;;;6.60;96.00;;;;;;4992751;28;20034;-61
2021/04/05 03:51:12;;;;;;;39.28;19.98;;;6.30;96.50;;;;;;4993524;28;20026;-61
2021/04/05 03:53:46;;;;;;;34.25;19.17;;;6.20;96.80;;;;;;4994133;28;20456;-61
2021/04/05 03:56:17;;;;;;;43.70;19.73;;;6.00;97.40;;;;;;4992962;28;20516;-61
2021/04/05 03:58:49;;;;;;;33.43;18.27;;;6.00;97.80;;;;;;4993799;28;20125;-60
2021/04/05 04:01:19;;;;;;;38.58;18.67;;;6.00;97.80;;;;;;4993411;28;20032;-61
2021/04/05 04:04:01;;;;;;;40.33;18.83;;;5.90;98.00;;;;;;4993778;28;20034;-61
2021/04/05 04:09:05;;;;;;;43.25;19.55;;;5.80;98.30;;;;;;5011446;28;20046;-61
2021/04/05 04:11:34;;;;;;;49.05;20.63;;;5.60;98.90;;;;;;4993199;28;20034;-61
2021/04/05 04:14:03;;;;;;;42.53;19.65;;;5.60;99.20;;;;;;5011170;28;20028;-60
2021/04/05 04:16:30;;;;;;;36.25;18.90;;;5.50;99.50;;;;;;4992582;28;20034;-61
2021/04/05 04:18:59;;;;;;;46.25;19.27;;;5.50;99.60;;;;;;4993463;28;20108;-60
2021/04/05 04:21:25;;;;;;;38.28;19.67;;;5.50;99.80;;;;;;5009641;28;20034;-60
2021/04/05 04:23:51;;;;;;;40.33;20.33;;;5.50;99.90;;;;;;4993466;28;20124;-61
2021/04/05 04:26:16;;;;;;;32.55;18.45;;;5.40;99.90;;;;;;5010424;28;20069;-60
2021/04/05 04:28:45;;;;;;;37.50;18.75;;;5.30;99.90;;;;;;4992271;28;20038;-60
2021/04/05 04:31:12;;;;;;;34.08;18.02;;;5.20;99.90;;;;;;5009948;28;20026;-60
2021/04/05 04:33:38;;;;;;;32.55;17.50;;;5.30;99.90;;;;;;4991741;28;20026;-61
2021/04/05 04:36:05;;;;;;;36.53;17.73;;;5.20;99.90;;;;;;4992542;28;20087;-62
2021/04/05 04:38:32;;;;;;;32.55;19.25;;;5.20;99.90;;;;;;5009370;28;20062;-60
2021/04/05 04:40:57;;;;;;;39.80;17.13;;;5.20;99.90;;;;;;5010565;28;20097;-61
2021/04/05 04:43:23;;;;;;;34.55;17.05;;;5.10;99.90;;;;;;4991584;28;20497;-61
2021/04/05 04:45:49;;;;;;;35.72;17.73;;;5.10;99.90;;;;;;5010635;28;20037;-61
2021/04/05 04:48:15;;;;;;;37.90;17.77;;;5.10;99.90;;;;;;4992112;28;20489;-61
2021/04/05 04:50:41;;;;;;;35.50;19.55;;;5.20;99.90;;;;;;4992847;28;20034;-61
2021/04/05 04:53:07;;;;;;;38.03;18.08;;;5.10;99.90;;;;;;4992402;28;20026;-61
2021/04/05 04:55:34;;;;;;;39.05;18.05;;;5.10;99.90;;;;;;4992396;28;20113;-62
2021/04/05 04:58:02;;;;;;;33.40;18.42;;;5.00;99.90;;;;;;5010442;28;20037;-60
2021/04/05 05:00:31;;;;;;;40.42;18.60;;;5.00;99.90;;;;;;5010083;28;20030;-60
2021/04/05 05:02:57;;;;;;;37.53;17.50;;;5.10;99.90;;;;;;4992903;28;20044;-61
2021/04/05 05:05:25;;;;;;;35.95;18.02;;;5.10;99.90;;;;;;4991646;28;20025;-60
2021/04/05 05:07:51;;;;;;;39.00;17.88;;;5.10;99.90;;;;;;4992501;28;20447;-62
2021/04/05 05:10:19;;;;;;;34.30;16.70;;;5.10;99.90;;;;;;5009731;28;20056;-61
2021/04/05 05:12:45;;;;;;;34.78;17.17;;;5.00;99.90;;;;;;4992838;28;20026;-62
2021/04/05 05:15:13;;;;;;;34.08;17.98;;;5.00;99.90;;;;;;4992229;28;20408;-61
2021/04/05 05:17:44;;;;;;;34.13;17.42;;;5.00;99.90;;;;;;4993000;28;20083;-61
2021/04/05 05:20:11;;;;;;;32.00;16.27;;;5.00;99.90;;;;;;5009829;28;20030;-60
2021/04/05 05:22:40;;;;;;;34.60;17.52;;;5.00;99.90;;;;;;5009720;28;20590;-60
2021/04/05 05:25:08;;;;;;;31.70;16.45;;;5.00;99.90;;;;;;4992657;28;20026;-60
2021/04/05 05:27:42;;;;;;;32.85;16.23;;;5.10;99.90;;;;;;4992250;28;20022;-60
2021/04/05 05:30:08;;;;;;;27.52;16.08;;;5.20;99.90;;;;;;5010059;28;20034;-61
2021/04/05 05:32:38;;;;;;;31.40;15.38;;;5.20;99.90;;;;;;4991906;28;20045;-61
2021/04/05 05:35:07;;;;;;;28.63;15.10;;;5.50;99.90;;;;;;4992433;28;20026;-61
2021/04/05 05:37:33;;;;;;;36.47;15.98;;;5.40;99.90;;;;;;4991376;28;20341;-62
2021/04/05 05:39:59;;;;;;;29.95;14.93;;;5.40;99.90;;;;;;5010449;28;20072;-62
2021/04/05 05:42:54;;;;;;;29.70;14.00;;;5.60;99.90;;;;;;4991903;28;20022;-62
2021/04/05 05:45:24;;;;;;;29.88;14.23;;;5.70;99.90;;;;;;4993170;28;20030;-61
2021/04/05 05:48:04;;;;;;;29.83;13.93;;;5.60;99.90;;;;;;4996438;28;20034;-62
2021/04/05 05:50:36;;;;;;;32.70;14.45;;;5.70;99.90;;;;;;4995450;28;20038;-61
2021/04/05 05:53:33;;;;;;;30.15;14.82;;;5.70;99.90;;;;;;5013826;28;20356;-61
2021/04/05 05:56:37;;;;;;;26.40;12.95;;;5.90;99.90;;;;;;4996163;28;20432;-62
2021/04/05 05:59:38;;;;;;;28.80;13.38;;;5.90;99.90;;;;;;4996184;28;20058;-61
2021/04/05 06:02:25;;;;;;;22.92;12.32;;;5.90;99.90;;;;;;5013308;28;20025;-60
2021/04/05 06:04:51;;;;;;;27.02;12.85;;;5.90;99.90;;;;;;5013600;28;20088;-62
2021/04/05 06:07:52;;;;;;;24.35;12.50;;;6.00;99.90;;;;;;4994404;28;20143;-61
2021/04/05 06:10:30;;;;;;;24.60;12.80;;;6.00;99.90;;;;;;4926361;28;20136;-60
2021/04/05 06:13:05;;;;;;;24.80;12.80;;;6.20;99.90;;;;;;5013383;28;20030;-62
2021/04/05 06:15:43;;;;;;;23.73;11.75;;;6.30;99.90;;;;;;4994685;28;20040;-62
2021/04/05 06:18:30;;;;;;;24.35;11.27;;;6.30;99.90;;;;;;4995733;28;20026;-61
2021/04/05 06:21:11;;;;;;;30.25;11.52;;;6.40;99.90;;;;;;5013001;28;20058;-60
2021/04/05 06:23:50;;;;;;;25.55;12.82;;;6.50;99.90;;;;;;4995680;28;20129;-61
2021/04/05 06:26:50;;;;;;;24.20;11.98;;;6.60;99.90;;;;;;5012497;28;20022;-60
2021/04/05 06:30:00;;;;;;;28.15;11.52;;;6.70;99.90;;;;;;4994692;28;20542;-60
2021/04/05 06:32:49;;;;;;;24.65;10.80;;;6.70;99.90;;;;;;5012157;28;20030;-60
2021/04/05 06:35:38;;;;;;;20.00;10.95;;;6.80;99.90;;;;;;4979106;28;20022;-60
2021/04/05 06:38:16;;;;;;;24.65;10.18;;;6.90;99.90;;;;;;4992909;28;20154;-59
2021/04/05 06:40:43;;;;;;;22.15;9.95;;;6.90;99.90;;;;;;4992858;28;20113;-61
2021/04/05 06:43:35;;;;;;;23.73;11.48;;;6.90;99.90;;;;;;4993135;28;20033;-61
2021/04/05 06:46:12;;;;;;;19.93;9.67;;;7.00;99.90;;;;;;4975605;28;20030;-61
2021/04/05 06:49:13;;;;;;;18.17;9.98;;;6.90;99.80;;;;;;4974870;28;20295;-61
2021/04/05 06:52:17;;;;;;;19.48;10.88;;;7.00;99.80;;;;;;4992090;28;20165;-61
2021/04/05 06:54:55;;;;;;;28.92;11.73;;;7.00;99.70;;;;;;4926540;28;20034;-60
2021/04/05 06:57:29;;;;;;;17.65;10.35;;;7.10;99.40;;;;;;4973926;28;20062;-61
2021/04/05 07:00:01;;;;;;;20.52;11.25;;;7.20;99.40;;;;;;4975676;28;20042;-61
2021/04/05 07:02:37;;;;;;;22.50;12.20;;;7.10;99.30;;;;;;4974727;28;20444;-62
2021/04/05 07:05:19;;;;;;;23.33;12.50;;;7.10;99.40;;;;;;4975474;28;20030;-64
2021/04/05 07:07:50;;;;;;;22.77;12.73;;;7.10;99.50;;;;;;4974509;28;20081;-61
2021/04/05 07:10:27;;;;;;;21.02;10.93;;;7.20;99.50;;;;;;4992276;28;20042;-61
2021/04/05 07:13:15;;;;;;;24.27;12.82;;;7.30;99.20;;;;;;4992360;28;20030;-62
2021/04/05 07:16:03;;;;;;;19.67;11.35;;;7.30;99.40;;;;;;4990514;28;20042;-61
2021/04/05 07:19:03;;;;;;;21.90;11.88;;;7.30;99.10;;;;;;4991559;28;20026;-62
2021/04/05 07:22:09;;;;;;;26.20;12.45;;;7.30;99.30;;;;;;4991959;28;20039;-62
2021/04/05 07:24:42;;;;;;;23.85;11.50;;;7.30;99.40;;;;;;4944491;28;20816;-61
2021/04/05 07:27:42;;;;;;;24.23;11.27;;;7.40;99.10;;;;;;4991625;28;20027;-61
2021/04/05 07:30:22;;;;;;;22.80;13.60;;;7.50;98.90;;;;;;4965811;28;20133;-62
2021/04/05 07:33:19;;;;;;;24.98;12.70;;;7.60;98.70;;;;;;4974640;28;20023;-61
2021/04/05 07:36:13;;;;;;;22.23;11.50;;;7.50;98.80;;;;;;4974744;28;20030;-61
2021/04/05 07:39:00;;;;;;;26.02;11.80;;;7.50;98.90;;;;;;4969670;28;20445;-61
2021/04/05 07:41:35;;;;;;;28.27;13.88;;;7.60;98.80;;;;;;4991759;28;20448;-61
2021/04/05 07:44:26;;;;;;;30.52;14.35;;;7.70;98.50;;;;;;4991740;28;20416;-62
2021/04/05 07:46:59;;;;;;;29.60;13.45;;;7.60;98.50;;;;;;4974354;28;20133;-61
2021/04/05 07:49:36;;;;;;;24.40;13.05;;;7.60;98.70;;;;;;4973077;28;20471;-61
2021/04/05 07:52:29;;;;;;;25.17;12.73;;;7.70;98.70;;;;;;4991855;28;20444;-67
2021/04/05 07:54:56;;;;;;;26.17;13.63;;;7.70;98.40;;;;;;4992143;28;20034;-62
2021/04/05 07:57:47;;;;;;;22.88;12.38;;;7.70;98.40;;;;;;4973293;28;20034;-62
2021/04/05 08:00:50;;;;;;;27.20;14.32;;;7.80;98.40;;;;;;4974009;28;20061;-61
2021/04/05 08:03:19;;;;;;;21.85;12.48;;;7.80;98.40;;;;;;4956275;28;20089;-61
2021/04/05 08:05:56;;;;;;;27.52;14.18;;;7.80;98.20;;;;;;5010936;28;20132;-60
2021/04/05 08:08:33;;;;;;;28.40;13.95;;;7.90;98.10;;;;;;4992519;28;20038;-61
2021/04/05 08:11:17;;;;;;;28.30;12.85;;;7.90;98.10;;;;;;4993766;28;20129;-61
2021/04/05 08:14:10;;;;;;;24.20;13.55;;;8.00;98.10;;;;;;5010856;28;20475;-61
2021/04/05 08:16:59;;;;;;;25.55;13.70;;;7.90;98.20;;;;;;5009918;28;20076;-61
2021/04/05 08:19:30;;;;;;;33.47;15.95;;;8.00;98.20;;;;;;4992232;28;20026;-61
2021/04/05 08:22:07;;;;;;;28.33;13.82;;;7.90;98.30;;;;;;4993182;28;20510;-60
2021/04/05 08:24:50;;;;;;;29.20;14.25;;;8.10;98.50;;;;;;5010400;28;20404;-62
2021/04/05 08:28:03;;;;;;;36.33;15.95;;;8.10;97.90;;;;;;4993117;28;20030;-61
2021/04/05 08:30:39;;;;;;;32.30;14.27;;;8.00;98.00;;;;;;4950001;28;20042;-61
2021/04/05 08:33:27;;;;;;;27.58;14.95;;;8.10;98.00;;;;;;4993099;28;20408;-61
2021/04/05 08:36:05;;;;;;;31.05;14.82;;;8.10;98.00;;;;;;4992396;28;20544;-61
2021/04/05 08:38:53;;;;;;;24.60;13.10;;;8.10;97.90;;;;;;5009593;28;20535;-60
2021/04/05 08:41:29;;;;;;;27.45;14.85;;;8.10;98.00;;;;;;4992877;28;20084;-61
2021/04/05 08:44:23;;;;;;;30.25;15.38;;;8.00;98.00;;;;;;5010456;28;20022;-62
2021/04/05 08:46:57;;;;;;;29.70;16.17;;;8.20;98.00;;;;;;4992495;28;20483;-60
2021/04/05 08:49:25;;;;;;;29.27;15.65;;;8.30;97.70;;;;;;5010202;28;20036;-61
2021/04/05 08:51:54;;;;;;;27.77;13.95;;;8.30;97.60;;;;;;5010572;28;20403;-61
2021/04/05 08:54:25;;;;;;;30.95;14.82;;;8.30;97.40;;;;;;5010326;28;20030;-61
2021/04/05 08:56:57;;;;;;;30.80;14.07;;;8.30;97.40;;;;;;5010722;28;20065;-61
2021/04/05 08:59:23;;;;;;;;;;;8.30;97.50;;;;;;5010216;28;20208;-61
2021/04/05 09:01:59;;;;;;;25.70;14.00;;;8.30;97.40;;;;;;4993323;28;20414;-62
2021/04/05 09:04:27;;;;;;;25.75;14.05;;;8.30;97.50;;;;;;5004978;28;20022;-60
2021/04/05 09:07:09;;;;;;;22.08;11.85;;;8.40;97.40;;;;;;4988791;28;20034;-63
2021/04/05 09:09:36;;;;;;;29.25;15.20;;;9.50;98.90;;;;;;4992623;28;20045;-60
2021/04/05 09:12:05;;;;;;;29.60;14.00;;;9.30;95.40;;;;;;5000933;28;20030;-69
2021/04/05 09:14:38;;;;;;;25.48;13.43;;;8.90;96.10;;;;;;4974612;28;20038;-60
2021/04/05 09:17:07;;;;;;;30.20;13.85;;;8.80;96.50;;;;;;4990354;28;20117;-61
2021/04/05 09:19:57;;;;;;;26.90;13.73;;;8.60;96.80;;;;;;4989472;28;20076;-60
2021/04/05 09:22:42;;;;;;;25.50;14.30;;;8.40;97.10;;;;;;4976389;28;20483;-61
2021/04/05 09:25:29;;;;;;;30.38;14.82;;;8.40;97.50;;;;;;4977071;28;20036;-61
2021/04/05 09:28:05;;;;;;;30.35;15.02;;;8.20;97.70;;;;;;4976422;28;20022;-61
2021/04/05 09:30:57;;;;;;;33.63;16.35;;;8.10;98.00;;;;;;4975946;28;20130;-61
2021/04/05 09:33:41;;;;;;;;;;;8.10;98.10;;;;;;4994990;28;20033;-61
2021/04/05 09:36:39;;;;;;;31.50;14.95;;;8.20;98.20;;;;;;5013182;28;19995;-61
2021/04/05 09:39:37;;;;;;;26.10;14.65;;;8.10;98.40;;;;;;4995443;28;20088;-61
2021/04/05 09:42:30;;;;;;;32.55;15.30;;;8.10;98.60;;;;;;4996014;28;20034;-62
2021/04/05 09:45:03;;;;;;;32.00;16.40;;;8.10;98.60;;;;;;5013560;28;20080;-61
2021/04/05 09:47:46;;;;;;;23.42;14.85;;;8.20;98.70;;;;;;4995112;28;20069;-60
2021/04/05 09:50:43;;;;;;;33.15;15.13;;;8.20;98.70;;;;;;5013871;28;20514;-61
2021/04/05 09:53:23;;;;;;;28.85;15.10;;;8.20;98.80;;;;;;4928223;28;20251;-61
2021/04/05 09:56:00;;;;;;;31.40;14.63;;;8.20;98.90;;;;;;4994819;28;20030;-61
2021/04/05 09:58:33;;;;;;;27.15;14.40;;;8.30;98.80;;;;;;4995739;28;20152;-61
2021/04/05 10:01:11;;;;;;;31.60;13.93;;;8.40;98.60;;;;;;5013283;28;20431;-61
2021/04/05 10:03:43;;;;;;;26.55;12.82;;;8.30;98.60;;;;;;4992614;28;20459;-64
2021/04/05 10:06:13;;;;;;;23.10;12.65;;;8.30;98.70;;;;;;4993182;28;20022;-63
2021/04/05 10:08:41;;;;;;;21.35;12.05;;;8.30;98.80;;;;;;4992929;28;20050;-62
2021/04/05 10:11:07;;;;;;;21.88;11.75;;;8.20;99.10;;;;;;4978237;28;20081;-61
2021/04/05 10:13:35;;;;;;;23.98;12.48;;;8.20;99.10;;;;;;5013323;28;20520;-62
2021/04/05 10:16:03;;;;;;;21.60;12.93;;;8.30;99.30;;;;;;5033057;28;20091;-61
2021/04/05 10:18:30;;;;;;;29.90;12.65;;;8.30;99.10;;;;;;5013873;28;20029;-61
2021/04/05 10:20:57;;;;;;;24.65;13.02;;;8.50;98.90;;;;;;5031069;28;20025;-63
2021/04/05 10:23:30;;;;;;;17.48;10.43;;;8.50;99.10;;;;;;5005402;28;20053;-61
2021/04/05 10:26:03;;;;;;;22.25;11.52;;;8.40;99.00;;;;;;4996321;28;20029;-62
2021/04/05 10:28:35;;;;;;;24.23;11.82;;;8.40;99.20;;;;;;4994164;28;20026;-61
2021/04/05 10:31:04;;;;;;;21.13;11.15;;;8.40;99.60;;;;;;4993562;28;20083;-61
2021/04/05 10:33:40;;;;;;;26.20;11.07;;;8.30;99.80;;;;;;5010897;28;20459;-61
2021/04/05 10:36:08;;;;;;;22.92;10.48;;;8.20;99.90;;;;;;4981554;28;20026;-60
2021/04/05 10:38:38;;;;;;;19.45;10.55;;;8.10;99.90;;;;;;4973987;28;20137;-61
2021/04/05 10:41:09;;;;;;;20.00;11.35;;;8.20;99.90;;;;;;4974711;28;20100;-62
2021/04/05 10:43:41;;;;;;;16.88;10.95;;;8.10;99.90;;;;;;4974769;28;20116;-62
2021/04/05 10:46:19;;;;;;;16.27;9.80;;;9.00;99.90;;;;;;5009897;28;20100;-62
2021/04/05 10:49:10;;;;;;;22.48;11.27;;;8.60;99.90;;;;;;4987206;28;20032;-62
2021/04/05 10:51:46;;;;;;;17.02;10.82;;;8.40;99.90;;;;;;4971371;28;20404;-61
2021/04/05 10:54:23;;;;;;;22.63;10.20;;;8.40;99.90;;;;;;4997868;28;20042;-62
2021/04/05 10:56:54;;;;;;;17.65;8.02;;;9.20;99.90;;;;;;4994314;28;20463;-63
2021/04/05 10:59:45;;;;;;;20.13;11.17;;;12.00;99.90;;;;;;5011619;28;20241;-63
2021/04/05 11:02:20;;;;;;;21.67;10.43;;;10.50;98.40;;;;;;4998334;28;20042;-61
2021/04/05 11:04:57;;;;;;;18.20;10.18;;;9.50;99.90;;;;;;4985030;28;20106;-61
2021/04/05 11:07:24;;;;;;;19.75;9.98;;;9.20;99.90;;;;;;4992843;28;20038;-62
2021/04/05 11:09:54;;;;;;;20.33;10.90;;;8.80;99.90;;;;;;4995169;28;20163;-61
2021/04/05 11:12:23;;;;;;;18.58;10.30;;;8.70;99.90;;;;;;4991886;28;20037;-64
2021/04/05 11:14:51;;;;;;;24.40;10.05;;;8.60;99.90;;;;;;4991508;28;20018;-62
2021/04/05 11:17:18;;;;;;;22.10;10.68;;;8.60;99.90;;;;;;4974397;28;20121;-62
2021/04/05 11:19:51;;;;;;;14.35;8.85;;;8.50;99.90;;;;;;4973812;28;20073;-61
2021/04/05 11:22:20;;;;;;;19.65;9.95;;;8.50;99.90;;;;;;4992307;28;20031;-61
2021/04/05 11:24:53;;;;;;;16.08;9.15;;;8.40;99.90;;;;;;4991083;28;20048;-62
2021/04/05 11:27:24;;;;;;;16.02;8.77;;;8.30;99.90;;;;;;4992386;28;20026;-63
2021/04/05 11:29:53;;;;;;;14.73;8.75;;;8.20;99.90;;;;;;4973522;28;20453;-63
2021/04/05 11:32:20;;;;;;;15.48;8.32;;;8.30;99.90;;;;;;4974529;28;20031;-62
2021/04/05 11:34:53;;;;;;;17.40;8.68;;;8.50;99.90;;;;;;4985161;28;20030;-61
2021/04/05 11:37:20;;;;;;;16.23;9.02;;;8.30;99.90;;;;;;5001669;28;20396;-62
2021/04/05 11:39:57;;;;;;;13.93;7.82;;;8.30;99.90;;;;;;5029877;28;20076;-62
2021/04/05 11:42:31;;;;;;;14.68;8.50;;;8.10;99.90;;;;;;5007091;28;20021;-61
2021/04/05 11:44:58;;;;;;;14.52;8.32;;;8.20;99.90;;;;;;4996835;28;20028;-62
2021/04/05 11:47:32;;;;;;;14.70;8.40;;;8.10;99.90;;;;;;5011862;28;20124;-62
2021/04/05 11:49:57;;;;;;;14.50;7.85;;;8.00;99.90;;;;;;5030788;28;20117;-62
2021/04/05 11:52:37;;;;;;;11.07;7.38;;;8.00;99.90;;;;;;5030664;28;20416;-62
2021/04/05 11:55:06;;;;;;;13.68;8.25;;;7.80;99.90;;;;;;5013452;28;20026;-61
2021/04/05 11:57:38;;;;;;;11.10;6.75;;;7.80;99.90;;;;;;5012693;28;20121;-61
2021/04/05 12:00:11;;;;;;;9.35;5.60;;;7.80;99.90;;;;;;5013472;28;20034;-62
2021/04/05 12:02:50;;;;;;;8.73;5.65;;;7.70;99.90;;;;;;5030169;28;20040;-60
2021/04/05 12:05:30;;;;;;;8.57;5.25;;;7.80;99.90;;;;;;4997190;28;20045;-61
2021/04/05 12:08:17;;;;;;;7.93;4.32;;;7.80;99.90;;;;;;4992225;28;20200;-61
2021/04/05 12:10:47;;;;;;;7.65;4.15;;;7.70;99.90;;;;;;5009379;28;20042;-61
2021/04/05 12:13:16;;;;;;;5.97;3.75;;;7.80;99.90;;;;;;5010790;28;20136;-62
2021/04/05 12:15:44;;;;;;;4.13;2.95;;;7.70;99.90;;;;;;5010477;28;20029;-61
2021/04/05 12:18:11;;;;;;;6.10;1.95;;;7.50;99.90;;;;;;4993187;28;20040;-62
2021/04/05 12:20:39;;;;;;;5.38;1.75;;;7.40;99.90;;;;;;4992484;28;20052;-62
2021/04/05 12:23:10;;;;;;;2.28;1.10;;;7.20;99.90;;;;;;5009882;28;20117;-62
2021/04/05 12:25:39;;;;;;;3.55;1.20;;;7.20;99.90;;;;;;5010037;28;20022;-61
2021/04/05 12:28:08;;;;;;;1.63;1.00;;;7.20;99.90;;;;;;4992878;28;20124;-62
2021/04/05 12:30:35;;;;;;;1.08;0.65;;;7.20;99.90;;;;;;4992565;28;20141;-61
2021/04/05 12:33:03;;;;;;;2.65;0.45;;;7.20;99.90;;;;;;5010649;28;20022;-62
2021/04/05 12:35:31;;;;;;;0.93;0.57;;;7.10;99.90;;;;;;4993189;28;20157;-61
2021/04/05 12:38:03;;;;;;;1.02;0.60;;;7.00;99.90;;;;;;5009177;28;20040;-61
2021/04/05 12:40:33;;;;;;;0.55;0.50;;;7.10;99.90;;;;;;4992886;28;20471;-61
2021/04/05 12:43:07;;;;;;;2.33;0.63;;;7.10;99.90;;;;;;4992276;28;20022;-61
2021/04/05 12:45:36;;;;;;;0.40;0.25;;;7.00;99.90;;;;;;4992935;28;20049;-61
2021/04/05 12:48:03;;;;;;;1.05;0.43;;;7.00;99.90;;;;;;5010739;28;20032;-62
2021/04/05 12:50:33;;;;;;;1.00;0.45;;;7.00;99.90;;;;;;5011030;28;20026;-61
2021/04/05 12:53:04;;;;;;;0.73;0.57;;;6.70;99.90;;;;;;5009910;28;20026;-62
2021/04/05 12:55:36;;;;;;;1.55;0.40;;;6.80;99.90;;;;;;4992147;28;20025;-60
2021/04/05 12:58:03;;;;;;;2.50;0.60;;;6.50;99.90;;;;;;4992769;28;20030;-62
2021/04/05 13:00:29;;;;;;;1.77;0.40;;;6.40;99.90;;;;;;5009535;28;20050;-63
2021/04/05 13:03:13;;;;;;;0.85;0.32;;;6.40;99.90;;;;;;5009258;28;20084;-63
2021/04/05 13:05:53;;;;;;;1.02;0.35;;;6.30;99.90;;;;;;4992137;28;20102;-60
2021/04/05 13:08:40;;;;;;;0.88;0.35;;;6.30;99.90;;;;;;4992309;28;20038;-61
2021/04/05 13:11:42;;;;;;;2.33;0.40;;;6.20;98.30;;;;;;4992561;28;20034;-61
2021/04/05 13:14:34;;;;;;;2.08;0.38;;;6.20;99.90;;;;;;5010238;28;20026;-61
2021/04/05 13:17:10;;;;;;;1.48;0.20;;;6.80;97.20;;;;;;5009817;28;20361;-61